createdAt,value
2018-10-12T00:00:12.407Z,99.99
2018-10-12T00:01:12.340Z,99.99
2018-10-12T00:02:12.283Z,99.99
2018-10-12T00:03:12.222Z,99.99
2018-10-12T00:04:12.166Z,99.99
2018-10-12T00:05:12.100Z,99.99
2018-10-12T00:06:12.037Z,99.99
2018-10-12T00:07:11.977Z,99.99
2018-10-12T00:08:11.921Z,99.99
2018-10-12T00:09:11.880Z,99.99
2018-10-12T00:10:11.804Z,99.99
2018-10-12T00:11:11.736Z,99.99
2018-10-12T00:12:11.675Z,99.99
2018-10-12T00:13:11.613Z,99.99
2018-10-12T00:14:11.553Z,99.99
2018-10-12T00:15:11.491Z,99.99
2018-10-12T00:16:11.431Z,99.99
2018-10-12T00:17:11.370Z,99.99
2018-10-12T00:18:11.310Z,99.99
2018-10-12T00:19:11.248Z,99.99
2018-10-12T00:20:11.189Z,99.99
2018-10-12T00:21:11.136Z,99.99
2018-10-12T00:22:11.063Z,99.99
2018-10-12T00:23:11.007Z,99.99
2018-10-12T00:24:10.947Z,99.99
2018-10-12T00:25:10.881Z,99.99
2018-10-12T00:26:10.827Z,99.99
2018-10-12T00:27:10.784Z,99.99
2018-10-12T00:28:10.698Z,99.99
2018-10-12T00:29:10.643Z,99.99
2018-10-12T00:30:10.585Z,99.99
2018-10-12T00:31:10.521Z,99.99
2018-10-12T00:32:10.459Z,99.99
2018-10-12T00:33:10.410Z,99.99
2018-10-12T00:34:10.333Z,99.99
2018-10-12T00:35:10.292Z,99.99
2018-10-12T00:36:10.224Z,99.99
2018-10-12T00:37:10.153Z,99.99
2018-10-12T00:38:10.094Z,99.99
2018-10-12T00:39:10.035Z,99.99
2018-10-12T00:40:09.966Z,99.99
2018-10-12T00:41:09.925Z,99.99
2018-10-12T00:42:09.861Z,99.99
2018-10-12T00:43:09.784Z,99.99
2018-10-12T00:44:09.748Z,99.99
2018-10-12T00:45:09.667Z,99.99
2018-10-12T00:46:09.617Z,99.99
2018-10-12T00:47:09.563Z,99.99
2018-10-12T00:48:09.490Z,99.99
2018-10-12T00:49:09.422Z,99.99
2018-10-12T00:50:09.361Z,99.99
2018-10-12T00:51:09.297Z,99.99
2018-10-12T00:52:09.248Z,99.99
2018-10-12T00:53:09.186Z,99.99
2018-10-12T00:54:09.119Z,99.99
2018-10-12T00:55:09.065Z,99.99
2018-10-12T00:56:09.001Z,99.99
2018-10-12T00:57:08.944Z,99.99
2018-10-12T00:58:08.880Z,99.99
2018-10-12T00:59:08.813Z,99.99
2018-10-12T01:00:08.754Z,99.99
2018-10-12T01:01:08.696Z,99.99
2018-10-12T01:02:08.638Z,99.99
2018-10-12T01:03:08.572Z,99.99
2018-10-12T01:04:08.515Z,99.99
2018-10-12T01:05:08.446Z,99.99
2018-10-12T01:06:08.389Z,99.99
2018-10-12T01:07:08.329Z,99.99
2018-10-12T01:08:08.264Z,99.99
2018-10-12T01:09:08.207Z,99.99
2018-10-12T01:10:08.144Z,99.99
2018-10-12T01:11:08.081Z,99.99
2018-10-12T01:12:08.025Z,99.99
2018-10-12T01:13:07.963Z,99.99
2018-10-12T01:14:07.896Z,99.99
2018-10-12T01:15:07.837Z,99.99
2018-10-12T01:16:07.776Z,99.99
2018-10-12T01:17:07.712Z,99.99
2018-10-12T01:18:07.664Z,99.99
2018-10-12T01:19:07.594Z,99.99
2018-10-12T01:20:07.528Z,99.99
2018-10-12T01:21:07.468Z,99.99
2018-10-12T01:22:07.408Z,99.99
2018-10-12T01:23:07.364Z,99.99
2018-10-12T01:24:07.283Z,99.99
2018-10-12T01:25:07.225Z,99.99
2018-10-12T01:26:07.163Z,99.99
2018-10-12T01:27:07.101Z,99.99
2018-10-12T01:28:07.040Z,99.99
2018-10-12T01:29:06.979Z,99.99
2018-10-12T01:30:06.917Z,99.99
2018-10-12T01:31:06.858Z,99.99
2018-10-12T01:32:06.793Z,99.99
2018-10-12T01:33:06.737Z,99.99
2018-10-12T01:34:06.674Z,99.99
2018-10-12T01:35:06.608Z,99.99
2018-10-12T01:36:06.549Z,99.99
2018-10-12T01:37:06.491Z,99.99
2018-10-12T01:38:06.427Z,99.99
2018-10-12T01:39:06.377Z,99.99
2018-10-12T01:40:06.310Z,99.99
2018-10-12T01:41:06.240Z,99.99
2018-10-12T01:42:06.180Z,99.99
2018-10-12T01:43:06.124Z,99.99
2018-10-12T01:44:06.056Z,99.99
2018-10-12T01:45:05.995Z,99.99
2018-10-12T01:46:05.938Z,99.99
2018-10-12T01:47:05.879Z,99.99
2018-10-12T01:48:05.818Z,99.99
2018-10-12T01:49:05.755Z,99.99
2018-10-12T01:50:05.687Z,99.99
2018-10-12T01:51:05.628Z,99.99
2018-10-12T01:52:05.568Z,99.99
2018-10-12T01:53:05.504Z,99.99
2018-10-12T01:54:05.447Z,99.99
2018-10-12T01:55:05.384Z,99.99
2018-10-12T01:56:05.325Z,99.99
2018-10-12T01:57:05.268Z,99.99
2018-10-12T01:58:05.199Z,99.99
2018-10-12T01:59:05.140Z,99.99
2018-10-12T02:00:05.079Z,99.99
2018-10-12T02:01:05.020Z,99.99
2018-10-12T02:02:04.955Z,99.99
2018-10-12T02:03:04.895Z,99.99
2018-10-12T02:04:04.828Z,99.99
2018-10-12T02:05:04.766Z,99.99
2018-10-12T02:06:04.718Z,99.99
2018-10-12T02:07:04.651Z,99.99
2018-10-12T02:08:04.586Z,99.99
2018-10-12T02:09:04.537Z,99.99
2018-10-12T02:10:04.527Z,99.99
2018-10-12T02:11:04.405Z,99.99
2018-10-12T02:12:04.344Z,99.99
2018-10-12T02:13:04.286Z,99.99
2018-10-12T02:14:04.218Z,99.99
2018-10-12T02:15:04.161Z,99.99
2018-10-12T02:16:04.101Z,99.99
2018-10-12T02:17:04.031Z,99.99
2018-10-12T02:18:03.977Z,99.99
2018-10-12T02:19:03.914Z,99.99
2018-10-12T02:20:03.850Z,99.99
2018-10-12T02:21:03.792Z,99.99
2018-10-12T02:22:03.731Z,99.99
2018-10-12T02:23:03.668Z,99.99
2018-10-12T02:24:03.604Z,99.99
2018-10-12T02:25:03.549Z,99.99
2018-10-12T02:26:03.487Z,99.99
2018-10-12T02:27:03.432Z,99.99
2018-10-12T02:28:03.362Z,99.99
2018-10-12T02:29:03.301Z,99.99
2018-10-12T02:30:03.255Z,99.99
2018-10-12T02:31:03.186Z,99.99
2018-10-12T02:32:03.119Z,99.99
2018-10-12T02:33:03.058Z,99.99
2018-10-12T02:34:02.996Z,99.99
2018-10-12T02:35:02.934Z,99.99
2018-10-12T02:36:02.873Z,99.99
2018-10-12T02:37:02.818Z,99.99
2018-10-12T02:38:02.750Z,99.99
2018-10-12T02:39:02.686Z,99.99
2018-10-12T02:40:02.627Z,99.99
2018-10-12T02:41:02.566Z,99.99
2018-10-12T02:42:02.510Z,99.99
2018-10-12T02:43:02.445Z,99.99
2018-10-12T02:44:02.380Z,99.99
2018-10-12T02:45:02.320Z,99.99
2018-10-12T02:46:02.260Z,99.99
2018-10-12T02:47:02.196Z,99.99
2018-10-12T02:48:02.145Z,99.99
2018-10-12T02:49:02.076Z,99.99
2018-10-12T02:50:02.025Z,99.99
2018-10-12T02:51:01.965Z,99.99
2018-10-12T02:52:01.892Z,99.99
2018-10-12T02:53:01.826Z,99.99
2018-10-12T02:54:01.787Z,99.99
2018-10-12T02:55:01.708Z,99.99
2018-10-12T02:56:01.644Z,99.99
2018-10-12T02:57:01.583Z,99.99
2018-10-12T02:58:01.523Z,99.99
2018-10-12T02:59:01.457Z,99.99
2018-10-12T03:00:01.397Z,99.99
2018-10-12T03:01:01.340Z,99.99
2018-10-12T03:02:01.273Z,99.99
2018-10-12T03:03:01.215Z,99.99
2018-10-12T03:04:01.157Z,99.99
2018-10-12T03:05:01.092Z,99.99
2018-10-12T03:06:01.027Z,99.99
2018-10-12T03:07:00.975Z,99.99
2018-10-12T03:08:00.904Z,99.99
2018-10-12T03:09:00.840Z,99.99
2018-10-12T03:10:00.788Z,99.99
2018-10-12T03:11:00.733Z,99.99
2018-10-12T03:12:00.656Z,99.99
2018-10-12T03:13:00.590Z,99.99
2018-10-12T03:14:00.585Z,99.99
2018-10-12T03:15:00.476Z,99.99
2018-10-12T03:16:00.405Z,99.99
2018-10-12T03:17:00.349Z,99.99
2018-10-12T03:18:00.293Z,99.99
2018-10-12T03:19:00.230Z,99.99
2018-10-12T03:20:00.182Z,99.99
2018-10-12T03:21:00.105Z,99.99
2018-10-12T03:22:00.038Z,99.99
2018-10-12T03:22:59.993Z,99.99
2018-10-12T03:23:59.933Z,99.99
2018-10-12T03:24:59.856Z,99.99
2018-10-12T03:25:59.793Z,99.99
2018-10-12T03:26:59.731Z,99.99
2018-10-12T03:27:59.665Z,99.99
2018-10-12T03:28:59.606Z,99.99
2018-10-12T03:29:59.593Z,99.99
2018-10-12T03:30:59.520Z,99.99
2018-10-12T03:31:59.443Z,99.99
2018-10-12T03:32:59.381Z,99.99
2018-10-12T03:33:59.296Z,99.99
2018-10-12T03:34:59.257Z,99.99
2018-10-12T03:35:59.233Z,99.99
2018-10-12T03:36:59.113Z,99.99
2018-10-12T03:37:59.051Z,99.99
2018-10-12T03:38:59.019Z,99.99
2018-10-12T03:39:58.936Z,99.99
2018-10-12T03:40:58.877Z,99.99
2018-10-12T03:41:58.841Z,99.99
2018-10-12T03:42:58.783Z,99.99
2018-10-12T03:43:58.683Z,99.99
2018-10-12T03:44:58.648Z,99.99
2018-10-12T03:45:58.565Z,99.99
2018-10-12T03:46:58.507Z,99.99
2018-10-12T03:47:58.434Z,99.99
2018-10-12T03:48:58.370Z,99.99
2018-10-12T03:49:58.309Z,99.99
2018-10-12T03:50:58.248Z,99.99
2018-10-12T03:51:58.309Z,99.99
2018-10-12T03:52:58.122Z,99.99
2018-10-12T03:53:58.061Z,99.99
2018-10-12T03:54:57.999Z,99.99
2018-10-12T03:55:57.939Z,99.99
2018-10-12T03:56:57.877Z,99.99
2018-10-12T03:57:57.812Z,99.99
2018-10-12T03:58:57.755Z,99.99
2018-10-12T03:59:57.691Z,99.99
2018-10-12T04:00:57.633Z,99.99
2018-10-12T04:01:57.569Z,99.99
2018-10-12T04:02:57.505Z,99.99
2018-10-12T04:03:57.442Z,99.99
2018-10-12T04:04:57.387Z,99.99
2018-10-12T04:05:57.319Z,99.99
2018-10-12T04:06:57.255Z,99.99
2018-10-12T04:07:57.201Z,99.99
2018-10-12T04:08:57.135Z,99.99
2018-10-12T04:09:57.071Z,99.99
2018-10-12T04:10:57.015Z,99.99
2018-10-12T04:11:56.948Z,99.99
2018-10-12T04:12:56.892Z,99.99
2018-10-12T04:13:56.821Z,99.99
2018-10-12T04:14:56.768Z,99.99
2018-10-12T04:15:56.714Z,99.99
2018-10-12T04:16:56.633Z,99.99
2018-10-12T04:17:56.573Z,99.99
2018-10-12T04:18:56.525Z,99.99
2018-10-12T04:19:56.453Z,99.99
2018-10-12T04:20:56.407Z,99.99
2018-10-12T04:21:56.328Z,99.99
2018-10-12T04:22:56.263Z,99.99
2018-10-12T04:23:56.205Z,99.99
2018-10-12T04:24:56.155Z,99.99
2018-10-12T04:25:56.078Z,99.99
2018-10-12T04:26:56.020Z,99.99
2018-10-12T04:27:55.961Z,99.99
2018-10-12T04:28:55.892Z,99.99
2018-10-12T04:29:55.832Z,99.99
2018-10-12T04:30:55.770Z,99.99
2018-10-12T04:31:55.707Z,99.99
2018-10-12T04:32:55.643Z,99.99
2018-10-12T04:33:55.589Z,99.99
2018-10-12T04:34:55.526Z,99.99
2018-10-12T04:35:55.458Z,99.99
2018-10-12T04:36:55.399Z,99.99
2018-10-12T04:37:55.338Z,99.99
2018-10-12T04:38:55.276Z,99.99
2018-10-12T04:39:55.212Z,99.99
2018-10-12T04:40:55.149Z,99.99
2018-10-12T04:41:55.089Z,99.99
2018-10-12T04:42:55.035Z,99.99
2018-10-12T04:43:54.961Z,99.99
2018-10-12T04:44:54.904Z,99.99
2018-10-12T04:45:54.846Z,99.99
2018-10-12T04:46:54.778Z,99.99
2018-10-12T04:47:54.723Z,99.99
2018-10-12T04:48:54.664Z,99.99
2018-10-12T04:49:54.603Z,99.99
2018-10-12T04:50:54.531Z,99.99
2018-10-12T04:51:54.467Z,99.99
2018-10-12T04:52:54.411Z,99.99
2018-10-12T04:53:54.365Z,99.99
2018-10-12T04:54:54.287Z,99.99
2018-10-12T04:55:54.218Z,99.99
2018-10-12T04:56:54.167Z,99.99
2018-10-12T04:57:54.097Z,99.99
2018-10-12T04:58:54.040Z,99.99
2018-10-12T04:59:53.972Z,99.99
2018-10-12T05:00:53.958Z,99.99
2018-10-12T05:01:53.881Z,99.99
2018-10-12T05:02:53.795Z,99.99
2018-10-12T05:03:53.727Z,99.99
2018-10-12T05:04:53.659Z,99.99
2018-10-12T05:05:53.601Z,99.99
2018-10-12T05:06:53.545Z,99.99
2018-10-12T05:07:53.530Z,99.99
2018-10-12T05:08:53.430Z,99.99
2018-10-12T05:09:53.368Z,99.99
2018-10-12T05:10:53.296Z,99.99
2018-10-12T05:11:53.231Z,99.99
2018-10-12T05:12:53.167Z,99.99
2018-10-12T05:13:53.106Z,99.99
2018-10-12T05:14:53.038Z,99.99
2018-10-12T05:15:52.990Z,99.99
2018-10-12T05:16:52.928Z,99.99
2018-10-12T05:17:52.852Z,99.99
2018-10-12T05:18:52.796Z,99.99
2018-10-12T05:19:52.743Z,99.99
2018-10-12T05:20:52.671Z,99.99
2018-10-12T05:21:52.632Z,99.99
2018-10-12T05:22:52.555Z,99.99
2018-10-12T05:23:52.483Z,99.99
2018-10-12T05:24:52.424Z,99.99
2018-10-12T05:25:52.365Z,99.99
2018-10-12T05:26:52.296Z,99.99
2018-10-12T05:27:52.241Z,99.99
2018-10-12T05:28:52.176Z,99.99
2018-10-12T05:29:52.115Z,99.99
2018-10-12T05:30:52.051Z,99.99
2018-10-12T05:31:51.989Z,99.99
2018-10-12T05:32:51.936Z,99.99
2018-10-12T05:33:51.864Z,99.99
2018-10-12T05:34:51.804Z,99.99
2018-10-12T05:35:51.784Z,99.99
2018-10-12T05:36:51.678Z,99.99
2018-10-12T05:37:51.616Z,99.99
2018-10-12T05:38:51.556Z,99.99
2018-10-12T05:39:51.493Z,99.99
2018-10-12T05:40:51.455Z,99.99
2018-10-12T05:41:51.371Z,99.99
2018-10-12T05:42:51.382Z,99.99
2018-10-12T05:43:51.392Z,99.99
2018-10-12T05:44:51.183Z,99.99
2018-10-12T05:45:51.139Z,99.99
2018-10-12T05:46:51.059Z,99.99
2018-10-12T05:47:51.043Z,99.99
2018-10-12T05:48:50.971Z,99.99
2018-10-12T05:49:50.874Z,99.99
2018-10-12T05:50:50.810Z,99.99
2018-10-12T05:51:50.758Z,99.99
2018-10-12T05:52:50.690Z,99.99
2018-10-12T05:53:50.627Z,99.99
2018-10-12T05:54:50.559Z,99.99
2018-10-12T05:55:50.587Z,99.99
2018-10-12T05:56:50.454Z,99.99
2018-10-12T05:57:50.373Z,99.99
2018-10-12T05:58:50.314Z,99.99
2018-10-12T05:59:50.258Z,99.99
2018-10-12T06:00:50.185Z,99.99
2018-10-12T06:01:50.128Z,99.99
2018-10-12T06:02:50.082Z,99.99
2018-10-12T06:03:50.000Z,99.99
2018-10-12T06:04:49.943Z,99.99
2018-10-12T06:05:49.902Z,99.99
2018-10-12T06:06:49.831Z,99.99
2018-10-12T06:07:49.923Z,99.99
2018-10-12T06:08:49.854Z,99.99
2018-10-12T06:09:49.815Z,99.99
2018-10-12T06:10:49.570Z,99.99
2018-10-12T06:11:49.507Z,99.99
2018-10-12T06:12:49.444Z,99.99
2018-10-12T06:13:49.386Z,99.99
2018-10-12T06:14:49.320Z,99.99
2018-10-12T06:15:49.278Z,99.99
2018-10-12T06:16:49.210Z,99.99
2018-10-12T06:17:49.135Z,99.99
2018-10-12T06:18:49.076Z,99.99
2018-10-12T06:19:49.009Z,99.99
2018-10-12T06:20:48.951Z,99.99
2018-10-12T06:21:48.887Z,99.99
2018-10-12T06:22:48.826Z,99.99
2018-10-12T06:23:48.762Z,99.99
2018-10-12T06:24:48.701Z,99.99
2018-10-12T06:25:48.641Z,99.99
2018-10-12T06:26:48.639Z,99.99
2018-10-12T06:27:48.519Z,99.99
2018-10-12T06:28:48.454Z,99.99
2018-10-12T06:29:48.393Z,99.99
2018-10-12T06:30:48.334Z,99.99
2018-10-12T06:31:48.273Z,99.99
2018-10-12T06:32:48.219Z,99.99
2018-10-12T06:33:48.154Z,99.99
2018-10-12T06:34:48.075Z,99.99
2018-10-12T06:35:48.057Z,99.99
2018-10-12T06:36:47.965Z,99.99
2018-10-12T06:37:47.889Z,99.99
2018-10-12T06:38:47.847Z,99.99
2018-10-12T06:39:47.777Z,99.99
2018-10-12T06:40:47.755Z,99.99
2018-10-12T06:41:47.924Z,99.99
2018-10-12T06:42:47.596Z,99.99
2018-10-12T06:43:47.517Z,99.99
2018-10-12T06:44:47.465Z,99.99
2018-10-12T06:45:47.398Z,99.99
2018-10-12T06:46:47.474Z,99.99
2018-10-12T06:47:47.280Z,99.99
2018-10-12T06:48:47.230Z,99.99
2018-10-12T06:49:47.181Z,99.99
2018-10-12T06:50:47.091Z,99.99
2018-10-12T06:51:47.036Z,99.99
2018-10-12T06:52:46.961Z,99.99
2018-10-12T06:53:46.927Z,99.99
2018-10-12T06:54:46.837Z,99.99
2018-10-12T06:55:46.776Z,99.99
2018-10-12T06:56:46.730Z,99.99
2018-10-12T06:57:46.658Z,99.99
2018-10-12T06:58:46.600Z,99.99
2018-10-12T06:59:46.541Z,99.99
2018-10-12T07:00:46.469Z,99.99
2018-10-12T07:01:46.408Z,99.99
2018-10-12T07:02:46.351Z,99.99
2018-10-12T07:03:46.309Z,99.99
2018-10-12T07:04:46.224Z,99.99
2018-10-12T07:05:46.171Z,99.99
2018-10-12T07:06:46.100Z,99.99
2018-10-12T07:07:46.040Z,99.99
2018-10-12T07:08:45.982Z,99.99
2018-10-12T07:09:45.915Z,99.99
2018-10-12T07:10:45.857Z,99.99
2018-10-12T07:11:45.793Z,99.99
2018-10-12T07:12:45.729Z,99.99
2018-10-12T07:13:45.742Z,99.99
2018-10-12T07:14:45.608Z,99.99
2018-10-12T07:15:45.579Z,99.99
2018-10-12T07:16:45.481Z,99.99
2018-10-12T07:17:45.423Z,99.99
2018-10-12T07:18:45.361Z,99.99
2018-10-12T07:19:45.299Z,99.99
2018-10-12T07:20:45.239Z,99.99
2018-10-12T07:21:45.218Z,99.99
2018-10-12T07:22:45.117Z,99.99
2018-10-12T07:23:45.053Z,99.99
2018-10-12T07:24:44.992Z,99.99
2018-10-12T07:25:44.981Z,99.99
2018-10-12T07:26:44.869Z,99.99
2018-10-12T07:27:44.808Z,99.99
2018-10-12T07:28:44.766Z,99.99
2018-10-12T07:29:44.686Z,99.99
2018-10-12T07:30:44.624Z,99.99
2018-10-12T07:31:44.562Z,99.99
2018-10-12T07:32:44.504Z,99.99
2018-10-12T07:33:44.441Z,99.99
2018-10-12T07:34:44.385Z,99.99
2018-10-12T07:35:44.316Z,99.99
2018-10-12T07:36:44.257Z,99.99
2018-10-12T07:37:44.536Z,99.99
2018-10-12T07:38:44.132Z,99.99
2018-10-12T07:39:44.075Z,99.99
2018-10-12T07:40:44.009Z,99.99
2018-10-12T07:41:43.950Z,99.99
2018-10-12T07:42:43.890Z,99.99
2018-10-12T07:43:43.832Z,99.99
2018-10-12T07:44:43.764Z,99.99
2018-10-12T07:45:43.707Z,99.99
2018-10-12T07:46:43.658Z,99.99
2018-10-12T07:47:43.593Z,99.99
2018-10-12T07:48:43.522Z,99.99
2018-10-12T07:49:43.483Z,99.99
2018-10-12T07:50:43.401Z,99.99
2018-10-12T07:51:43.340Z,99.99
2018-10-12T07:52:43.290Z,99.99
2018-10-12T07:53:43.223Z,99.34
2018-10-12T07:54:43.157Z,99.05
2018-10-12T07:55:43.110Z,98.38
2018-10-12T07:56:43.031Z,98.86
2018-10-12T07:57:42.977Z,98.19
2018-10-12T07:58:42.917Z,97.76
2018-10-12T07:59:42.849Z,97.61
2018-10-12T08:00:42.900Z,96.99
2018-10-12T08:01:42.731Z,97.28
2018-10-12T08:02:42.670Z,96.61
2018-10-12T08:03:42.647Z,96.13
2018-10-12T08:04:42.548Z,95.94
2018-10-12T08:05:42.488Z,94.89
2018-10-12T08:06:42.481Z,95.56
2018-10-12T08:07:42.364Z,94.98
2018-10-12T08:08:42.310Z,94.98
2018-10-12T08:09:42.322Z,94.74
2018-10-12T08:10:42.185Z,94.07
2018-10-12T08:11:42.128Z,94.26
2018-10-12T08:12:42.071Z,93.68
2018-10-12T08:13:42.049Z,93.30
2018-10-12T08:14:41.942Z,93.21
2018-10-12T08:15:41.886Z,92.91
2018-10-12T08:16:41.815Z,91.77
2018-10-12T08:17:41.781Z,91.96
2018-10-12T08:18:41.698Z,92.00
2018-10-12T08:19:41.642Z,91.72
2018-10-12T08:20:41.588Z,91.81
2018-10-12T08:21:41.519Z,92.00
2018-10-12T08:22:41.463Z,90.95
2018-10-12T08:23:41.401Z,90.95
2018-10-12T08:24:41.343Z,91.14
2018-10-12T08:25:41.294Z,91.14
2018-10-12T08:26:41.234Z,91.14
2018-10-12T08:27:41.163Z,90.85
2018-10-12T08:28:41.159Z,90.56
2018-10-12T08:29:41.042Z,89.61
2018-10-12T08:30:41.029Z,89.36
2018-10-12T08:31:40.914Z,88.88
2018-10-12T08:32:40.855Z,88.40
2018-10-12T08:33:40.793Z,88.31
2018-10-12T08:34:40.745Z,88.21
2018-10-12T08:35:40.675Z,88.31
2018-10-12T08:36:40.617Z,87.68
2018-10-12T08:37:40.553Z,87.77
2018-10-12T08:38:40.494Z,87.29
2018-10-12T08:39:40.433Z,87.29
2018-10-12T08:40:40.378Z,86.91
2018-10-12T08:41:40.334Z,87.01
2018-10-12T08:42:40.254Z,86.62
2018-10-12T08:43:40.189Z,86.43
2018-10-12T08:44:40.151Z,85.47
2018-10-12T08:45:40.073Z,85.57
2018-10-12T08:46:40.018Z,85.47
2018-10-12T08:47:39.966Z,85.18
2018-10-12T08:48:39.892Z,84.94
2018-10-12T08:49:39.841Z,84.84
2018-10-12T08:50:39.779Z,84.55
2018-10-12T08:51:39.722Z,84.84
2018-10-12T08:52:39.658Z,85.03
2018-10-12T08:53:39.591Z,84.55
2018-10-12T08:54:39.542Z,84.64
2018-10-12T08:55:39.529Z,84.26
2018-10-12T08:56:39.416Z,84.17
2018-10-12T08:57:39.359Z,84.36
2018-10-12T08:58:39.296Z,84.17
2018-10-12T08:59:39.237Z,84.07
2018-10-12T09:00:39.176Z,84.26
2018-10-12T09:01:39.117Z,84.26
2018-10-12T09:02:39.058Z,83.92
2018-10-12T09:03:38.997Z,84.45
2018-10-12T09:04:38.949Z,84.40
2018-10-12T09:05:38.891Z,84.30
2018-10-12T09:06:38.818Z,84.30
2018-10-12T09:07:38.772Z,83.53
2018-10-12T09:08:38.696Z,83.63
2018-10-12T09:09:38.671Z,83.34
2018-10-12T09:10:38.582Z,83.44
2018-10-12T09:11:38.527Z,82.38
2018-10-12T09:12:38.466Z,82.57
2018-10-12T09:13:38.407Z,81.65
2018-10-12T09:14:38.352Z,81.37
2018-10-12T09:15:38.286Z,80.11
2018-10-12T09:16:38.225Z,80.35
2018-10-12T09:17:38.167Z,79.10
2018-10-12T09:18:38.109Z,79.48
2018-10-12T09:19:38.048Z,79.19
2018-10-12T09:20:38.021Z,79.48
2018-10-12T09:21:37.977Z,79.00
2018-10-12T09:22:38.188Z,79.28
2018-10-12T09:23:37.813Z,78.71
2018-10-12T09:24:37.754Z,78.52
2018-10-12T09:25:37.701Z,77.84
2018-10-12T09:26:37.648Z,78.27
2018-10-12T09:27:37.578Z,77.78
2018-10-12T09:28:37.518Z,77.69
2018-10-12T09:29:37.461Z,77.88
2018-10-12T09:30:37.400Z,76.82
2018-10-12T09:31:37.339Z,77.69
2018-10-12T09:32:37.280Z,77.88
2018-10-12T09:33:37.219Z,77.59
2018-10-12T09:34:37.162Z,77.40
2018-10-12T09:35:37.106Z,77.21
2018-10-12T09:36:37.137Z,77.50
2018-10-12T09:37:36.984Z,77.59
2018-10-12T09:38:36.931Z,77.40
2018-10-12T09:39:36.863Z,76.92
2018-10-12T09:40:36.813Z,76.34
2018-10-12T09:41:36.767Z,75.96
2018-10-12T09:42:36.699Z,76.44
2018-10-12T09:43:36.632Z,75.86
2018-10-12T09:44:36.577Z,75.48
2018-10-12T09:45:36.524Z,75.19
2018-10-12T09:46:36.460Z,75.03
2018-10-12T09:47:36.400Z,75.28
2018-10-12T09:48:36.348Z,75.42
2018-10-12T09:49:36.286Z,74.65
2018-10-12T09:50:36.222Z,74.26
2018-10-12T09:51:36.163Z,73.78
2018-10-12T09:52:36.104Z,74.16
2018-10-12T09:53:36.047Z,74.16
2018-10-12T09:54:35.987Z,73.88
2018-10-12T09:55:35.938Z,75.42
2018-10-12T09:56:35.870Z,74.36
2018-10-12T09:57:35.813Z,73.97
2018-10-12T09:58:35.755Z,75.03
2018-10-12T09:59:35.696Z,74.45
2018-10-12T10:00:35.641Z,73.97
2018-10-12T10:01:35.608Z,74.36
2018-10-12T10:02:35.523Z,73.97
2018-10-12T10:03:35.475Z,73.68
2018-10-12T10:04:35.406Z,73.78
2018-10-12T10:05:35.355Z,73.58
2018-10-12T10:06:35.285Z,73.39
2018-10-12T10:07:35.315Z,73.20
2018-10-12T10:08:35.625Z,73.62
2018-10-12T10:09:35.113Z,72.95
2018-10-12T10:10:35.060Z,72.27
2018-10-12T10:11:34.995Z,72.08
2018-10-12T10:12:34.936Z,72.27
2018-10-12T10:13:34.888Z,72.08
2018-10-12T10:14:34.830Z,72.18
2018-10-12T10:15:34.781Z,71.70
2018-10-12T10:16:34.704Z,71.34
2018-10-12T10:17:34.662Z,71.06
2018-10-12T10:18:34.588Z,70.48
2018-10-12T10:19:34.532Z,70.00
2018-10-12T10:20:34.473Z,70.38
2018-10-12T10:21:34.415Z,69.42
2018-10-12T10:22:34.434Z,70.00
2018-10-12T10:23:34.300Z,70.22
2018-10-12T10:24:34.241Z,69.35
2018-10-12T10:25:34.195Z,68.93
2018-10-12T10:26:34.140Z,69.64
2018-10-12T10:27:34.066Z,70.13
2018-10-12T10:28:34.009Z,70.09
2018-10-12T10:29:33.954Z,70.57
2018-10-12T10:30:33.890Z,70.67
2018-10-12T10:31:33.836Z,70.67
2018-10-12T10:32:33.781Z,70.00
2018-10-12T10:33:33.733Z,70.00
2018-10-12T10:34:33.660Z,70.28
2018-10-12T10:35:33.605Z,70.86
2018-10-12T10:36:33.554Z,70.57
2018-10-12T10:37:33.490Z,70.38
2018-10-12T10:38:33.430Z,70.86
2018-10-12T10:39:33.374Z,70.38
2018-10-12T10:40:33.313Z,69.42
2018-10-12T10:41:33.259Z,70.09
2018-10-12T10:42:33.201Z,70.09
2018-10-12T10:43:33.145Z,70.61
2018-10-12T10:44:33.083Z,70.32
2018-10-12T10:45:33.025Z,71.09
2018-10-12T10:46:32.976Z,70.80
2018-10-12T10:47:32.912Z,70.42
2018-10-12T10:48:32.860Z,70.61
2018-10-12T10:49:32.794Z,70.67
2018-10-12T10:50:32.742Z,71.38
2018-10-12T10:51:32.680Z,71.64
2018-10-12T10:52:32.643Z,71.54
2018-10-12T10:53:32.617Z,71.00
2018-10-12T10:54:32.509Z,70.96
2018-10-12T10:55:32.467Z,70.86
2018-10-12T10:56:32.395Z,70.57
2018-10-12T10:57:32.336Z,70.61
2018-10-12T10:58:32.282Z,70.80
2018-10-12T10:59:32.231Z,70.90
2018-10-12T11:00:32.164Z,70.61
2018-10-12T11:01:32.106Z,71.00
2018-10-12T11:02:32.048Z,71.19
2018-10-12T11:03:31.996Z,71.54
2018-10-12T11:04:31.930Z,72.06
2018-10-12T11:05:31.930Z,70.32
2018-10-12T11:06:31.820Z,70.61
2018-10-12T11:07:31.765Z,70.70
2018-10-12T11:08:31.703Z,71.25
2018-10-12T11:09:31.646Z,70.67
2018-10-12T11:10:31.590Z,70.32
2018-10-12T11:11:31.529Z,69.26
2018-10-12T11:12:31.485Z,68.23
2018-10-12T11:13:31.424Z,68.43
2018-10-12T11:14:31.364Z,68.52
2018-10-12T11:15:31.304Z,68.23
2018-10-12T11:16:31.249Z,69.10
2018-10-12T11:17:31.191Z,69.10
2018-10-12T11:18:31.127Z,69.29
2018-10-12T11:19:31.129Z,69.10
2018-10-12T11:20:31.011Z,69.68
2018-10-12T11:21:30.953Z,68.33
2018-10-12T11:22:30.900Z,68.04
2018-10-12T11:23:30.841Z,67.69
2018-10-12T11:24:30.847Z,68.17
2018-10-12T11:25:30.725Z,67.97
2018-10-12T11:26:30.704Z,67.97
2018-10-12T11:27:30.611Z,67.30
2018-10-12T11:28:30.552Z,67.49
2018-10-12T11:29:30.495Z,68.65
2018-10-12T11:30:30.444Z,66.91
2018-10-12T11:31:30.382Z,66.43
2018-10-12T11:32:30.323Z,66.08
2018-10-12T11:33:30.286Z,66.46
2018-10-12T11:34:30.208Z,67.14
2018-10-12T11:35:30.151Z,66.27
2018-10-12T11:36:30.093Z,66.27
2018-10-12T11:37:30.039Z,66.94
2018-10-12T11:38:30.077Z,67.88
2018-10-12T11:39:29.916Z,67.49
2018-10-12T11:40:29.872Z,67.59
2018-10-12T11:41:29.805Z,67.88
2018-10-12T11:42:29.750Z,67.40
2018-10-12T11:43:29.687Z,67.40
2018-10-12T11:44:29.634Z,67.49
2018-10-12T11:45:29.712Z,68.26
2018-10-12T11:46:29.518Z,68.07
2018-10-12T11:47:29.460Z,67.59
2018-10-12T11:48:29.412Z,67.40
2018-10-12T11:49:29.349Z,67.59
2018-10-12T11:50:29.297Z,67.97
2018-10-12T11:51:29.233Z,68.75
2018-10-12T11:52:29.175Z,68.36
2018-10-12T11:53:29.120Z,68.65
2018-10-12T11:54:29.061Z,69.04
2018-10-12T11:55:29.017Z,69.13
2018-10-12T11:56:28.951Z,68.65
2018-10-12T11:57:28.887Z,69.52
2018-10-12T11:58:28.838Z,69.23
2018-10-12T11:59:28.774Z,69.42
2018-10-12T12:00:28.718Z,68.84
2018-10-12T12:01:28.661Z,68.46
2018-10-12T12:02:28.609Z,68.36
2018-10-12T12:03:28.553Z,67.40
2018-10-12T12:04:28.490Z,68.65
2018-10-12T12:05:28.432Z,67.40
2018-10-12T12:06:28.384Z,66.91
2018-10-12T12:07:28.321Z,65.66
2018-10-12T12:08:28.264Z,65.85
2018-10-12T12:09:28.205Z,65.27
2018-10-12T12:10:28.148Z,65.37
2018-10-12T12:11:28.089Z,66.05
2018-10-12T12:12:28.038Z,65.85
2018-10-12T12:13:28.009Z,66.72
2018-10-12T12:14:27.916Z,65.95
2018-10-12T12:15:27.864Z,65.88
2018-10-12T12:16:27.805Z,66.46
2018-10-12T12:17:27.749Z,65.98
2018-10-12T12:18:27.692Z,66.85
2018-10-12T12:19:27.673Z,67.11
2018-10-12T12:20:27.574Z,67.69
2018-10-12T12:21:27.520Z,66.43
2018-10-12T12:22:27.470Z,65.95
2018-10-12T12:23:27.409Z,65.85
2018-10-12T12:24:27.354Z,65.75
2018-10-12T12:25:27.296Z,66.56
2018-10-12T12:26:27.236Z,66.43
2018-10-12T12:27:27.185Z,66.08
2018-10-12T12:28:27.137Z,65.98
2018-10-12T12:29:27.065Z,65.98
2018-10-12T12:30:27.009Z,65.40
2018-10-12T12:31:26.956Z,66.08
2018-10-12T12:32:26.891Z,65.88
2018-10-12T12:33:26.839Z,65.59
2018-10-12T12:34:26.858Z,66.08
2018-10-12T12:35:27.069Z,66.66
2018-10-12T12:36:26.664Z,67.14
2018-10-12T12:37:26.611Z,67.14
2018-10-12T12:38:26.550Z,67.04
2018-10-12T12:39:26.492Z,67.72
2018-10-12T12:40:26.448Z,68.17
2018-10-12T12:41:26.382Z,68.46
2018-10-12T12:42:26.329Z,68.55
2018-10-12T12:43:26.266Z,67.78
2018-10-12T12:44:26.207Z,67.49
2018-10-12T12:45:26.155Z,67.69
2018-10-12T12:46:26.100Z,67.11
2018-10-12T12:47:26.124Z,66.72
2018-10-12T12:48:26.236Z,66.85
2018-10-12T12:49:26.154Z,66.85
2018-10-12T12:50:25.864Z,67.14
2018-10-12T12:51:25.806Z,66.94